sensor_id;sensor_type;location;lat;lon;timestamp;temperature;humidity
10300;DHT22;5195;48.562;9.192;2024-02-15T00:01:07;13.00;55.00
10300;DHT22;5195;48.562;9.192;2024-02-15T00:03:43;12.80;55.10
10300;DHT22;5195;48.562;9.192;2024-02-15T00:06:19;12.70;55.30
10300;DHT22;5195;48.562;9.192;2024-02-15T00:08:54;12.90;55.60
10300;DHT22;5195;48.562;9.192;2024-02-15T00:11:29;13.20;55.30
10300;DHT22;5195;48.562;9.192;2024-02-15T00:14:05;13.10;54.90
10300;DHT22;5195;48.562;9.192;2024-02-15T00:16:41;13.20;55.10
10300;DHT22;5195;48.562;9.192;2024-02-15T00:19:16;13.40;54.80
10300;DHT22;5195;48.562;9.192;2024-02-15T00:21:52;13.60;54.40
10300;DHT22;5195;48.562;9.192;2024-02-15T00:24:28;13.60;54.10
10300;DHT22;5195;48.562;9.192;2024-02-15T00:27:03;13.50;54.10
10300;DHT22;5195;48.562;9.192;2024-02-15T00:29:30;13.50;54.30
10300;DHT22;5195;48.562;9.192;2024-02-15T00:31:55;13.70;54.20
10300;DHT22;5195;48.562;9.192;2024-02-15T00:34:21;13.80;53.90
10300;DHT22;5195;48.562;9.192;2024-02-15T00:36:47;14.00;53.40
10300;DHT22;5195;48.562;9.192;2024-02-15T00:39:13;14.00;53.40
10300;DHT22;5195;48.562;9.192;2024-02-15T00:41:41;13.90;53.40
10300;DHT22;5195;48.562;9.192;2024-02-15T00:44:07;13.80;53.30
10300;DHT22;5195;48.562;9.192;2024-02-15T00:46:33;13.50;53.80
10300;DHT22;5195;48.562;9.192;2024-02-15T00:48:59;13.20;54.30
10300;DHT22;5195;48.562;9.192;2024-02-15T00:51:24;13.00;54.70
10300;DHT22;5195;48.562;9.192;2024-02-15T00:53:50;13.00;55.10
10300;DHT22;5195;48.562;9.192;2024-02-15T00:56:15;13.30;55.00
10300;DHT22;5195;48.562;9.192;2024-02-15T00:58:41;13.30;54.80
10300;DHT22;5195;48.562;9.192;2024-02-15T01:01:06;13.30;55.00
10300;DHT22;5195;48.562;9.192;2024-02-15T01:03:33;13.60;54.30
10300;DHT22;5195;48.562;9.192;2024-02-15T01:05:58;13.60;54.30
10300;DHT22;5195;48.562;9.192;2024-02-15T01:08:25;13.40;54.10
10300;DHT22;5195;48.562;9.192;2024-02-15T01:10:51;13.10;54.50
10300;DHT22;5195;48.562;9.192;2024-02-15T01:13:16;12.80;54.90
10300;DHT22;5195;48.562;9.192;2024-02-15T01:15:43;12.90;55.50
10300;DHT22;5195;48.562;9.192;2024-02-15T01:18:09;12.80;55.30
10300;DHT22;5195;48.562;9.192;2024-02-15T01:20:34;12.60;55.50
10300;DHT22;5195;48.562;9.192;2024-02-15T01:23:00;12.70;55.90
10300;DHT22;5195;48.562;9.192;2024-02-15T01:25:27;12.90;55.60
10300;DHT22;5195;48.562;9.192;2024-02-15T01:27:52;13.10;55.10
10300;DHT22;5195;48.562;9.192;2024-02-15T01:30:19;13.00;55.00
10300;DHT22;5195;48.562;9.192;2024-02-15T01:32:45;13.00;55.20
10300;DHT22;5195;48.562;9.192;2024-02-15T01:35:10;13.10;54.90
10300;DHT22;5195;48.562;9.192;2024-02-15T01:37:36;13.00;54.80
10300;DHT22;5195;48.562;9.192;2024-02-15T01:40:02;12.60;55.00
10300;DHT22;5195;48.562;9.192;2024-02-15T01:42:30;12.50;55.20
10300;DHT22;5195;48.562;9.192;2024-02-15T01:44:55;12.50;55.20
10300;DHT22;5195;48.562;9.192;2024-02-15T01:47:22;12.60;55.80
10300;DHT22;5195;48.562;9.192;2024-02-15T01:49:48;12.50;55.70
10300;DHT22;5195;48.562;9.192;2024-02-15T01:52:15;12.10;56.40
10300;DHT22;5195;48.562;9.192;2024-02-15T01:54:41;12.10;56.30
10300;DHT22;5195;48.562;9.192;2024-02-15T01:57:06;12.20;56.80
10300;DHT22;5195;48.562;9.192;2024-02-15T01:59:32;12.20;56.40
10300;DHT22;5195;48.562;9.192;2024-02-15T02:01:57;12.30;56.60
10300;DHT22;5195;48.562;9.192;2024-02-15T02:04:23;12.60;56.30
10300;DHT22;5195;48.562;9.192;2024-02-15T02:06:49;12.70;55.70
10300;DHT22;5195;48.562;9.192;2024-02-15T02:09:14;12.90;55.10
10300;DHT22;5195;48.562;9.192;2024-02-15T02:11:41;12.70;55.00
10300;DHT22;5195;48.562;9.192;2024-02-15T02:14:08;12.60;55.00
10300;DHT22;5195;48.562;9.192;2024-02-15T02:16:33;12.70;54.90
10300;DHT22;5195;48.562;9.192;2024-02-15T02:18:59;12.40;54.80
10300;DHT22;5195;48.562;9.192;2024-02-15T02:21:29;12.40;55.60
10300;DHT22;5195;48.562;9.192;2024-02-15T02:23:58;12.50;55.60
10300;DHT22;5195;48.562;9.192;2024-02-15T02:26:24;12.60;55.40
10300;DHT22;5195;48.562;9.192;2024-02-15T02:28:49;12.30;55.30
10300;DHT22;5195;48.562;9.192;2024-02-15T02:31:14;11.90;55.80
10300;DHT22;5195;48.562;9.192;2024-02-15T02:33:41;11.80;56.80
10300;DHT22;5195;48.562;9.192;2024-02-15T02:36:06;11.80;56.50
10300;DHT22;5195;48.562;9.192;2024-02-15T02:38:35;11.60;56.80
10300;DHT22;5195;48.562;9.192;2024-02-15T02:41:01;11.80;56.40
10300;DHT22;5195;48.562;9.192;2024-02-15T02:43:27;11.80;56.40
10300;DHT22;5195;48.562;9.192;2024-02-15T02:45:52;12.00;55.90
10300;DHT22;5195;48.562;9.192;2024-02-15T02:48:18;11.90;55.80
10300;DHT22;5195;48.562;9.192;2024-02-15T02:50:43;11.60;56.00
10300;DHT22;5195;48.562;9.192;2024-02-15T02:53:09;11.60;56.10
10300;DHT22;5195;48.562;9.192;2024-02-15T02:55:35;11.70;55.60
10300;DHT22;5195;48.562;9.192;2024-02-15T02:58:00;11.60;55.50
10300;DHT22;5195;48.562;9.192;2024-02-15T03:00:26;11.40;55.70
10300;DHT22;5195;48.562;9.192;2024-02-15T03:02:53;11.40;55.50
10300;DHT22;5195;48.562;9.192;2024-02-15T03:05:20;11.60;55.20
10300;DHT22;5195;48.562;9.192;2024-02-15T03:07:47;11.50;55.10
10300;DHT22;5195;48.562;9.192;2024-02-15T03:10:13;11.30;55.20
10300;DHT22;5195;48.562;9.192;2024-02-15T03:12:40;11.30;55.20
10300;DHT22;5195;48.562;9.192;2024-02-15T03:15:06;11.10;55.20
10300;DHT22;5195;48.562;9.192;2024-02-15T03:17:39;10.80;55.60
10300;DHT22;5195;48.562;9.192;2024-02-15T03:20:07;10.50;56.00
10300;DHT22;5195;48.562;9.192;2024-02-15T03:22:33;10.30;56.40
10300;DHT22;5195;48.562;9.192;2024-02-15T03:24:59;10.40;56.60
10300;DHT22;5195;48.562;9.192;2024-02-15T03:27:25;10.60;55.80
10300;DHT22;5195;48.562;9.192;2024-02-15T03:29:52;10.60;55.80
10300;DHT22;5195;48.562;9.192;2024-02-15T03:32:18;10.40;56.20
10300;DHT22;5195;48.562;9.192;2024-02-15T03:34:44;10.10;56.50
10300;DHT22;5195;48.562;9.192;2024-02-15T03:37:10;9.90;57.80
10300;DHT22;5195;48.562;9.192;2024-02-15T03:39:36;9.70;58.90
10300;DHT22;5195;48.562;9.192;2024-02-15T03:42:02;9.70;58.40
10300;DHT22;5195;48.562;9.192;2024-02-15T03:44:29;9.60;58.70
10300;DHT22;5195;48.562;9.192;2024-02-15T03:46:55;9.90;59.10
10300;DHT22;5195;48.562;9.192;2024-02-15T03:49:23;9.90;59.10
10300;DHT22;5195;48.562;9.192;2024-02-15T03:51:49;9.80;59.20
10300;DHT22;5195;48.562;9.192;2024-02-15T03:54:15;9.70;59.50
10300;DHT22;5195;48.562;9.192;2024-02-15T03:56:48;9.60;59.70
10300;DHT22;5195;48.562;9.192;2024-02-15T03:59:14;9.80;60.70
10300;DHT22;5195;48.562;9.192;2024-02-15T04:01:40;10.20;59.70
10300;DHT22;5195;48.562;9.192;2024-02-15T04:04:06;10.50;58.70
10300;DHT22;5195;48.562;9.192;2024-02-15T04:06:33;10.50;58.80
10300;DHT22;5195;48.562;9.192;2024-02-15T04:08:59;10.60;59.20
10300;DHT22;5195;48.562;9.192;2024-02-15T04:11:27;10.90;59.00
10300;DHT22;5195;48.562;9.192;2024-02-15T04:13:52;10.80;58.70
10300;DHT22;5195;48.562;9.192;2024-02-15T04:16:20;10.80;59.00
10300;DHT22;5195;48.562;9.192;2024-02-15T04:18:45;10.80;58.90
10300;DHT22;5195;48.562;9.192;2024-02-15T04:21:11;10.60;59.20
10300;DHT22;5195;48.562;9.192;2024-02-15T04:23:41;10.70;59.60
10300;DHT22;5195;48.562;9.192;2024-02-15T04:26:07;11.00;59.10
10300;DHT22;5195;48.562;9.192;2024-02-15T04:28:33;11.40;59.00
10300;DHT22;5195;48.562;9.192;2024-02-15T04:30:59;11.60;58.00
10300;DHT22;5195;48.562;9.192;2024-02-15T04:33:25;11.80;57.50
10300;DHT22;5195;48.562;9.192;2024-02-15T04:35:51;11.80;56.90
10300;DHT22;5195;48.562;9.192;2024-02-15T04:38:16;11.80;56.90
10300;DHT22;5195;48.562;9.192;2024-02-15T04:40:42;11.50;57.40
10300;DHT22;5195;48.562;9.192;2024-02-15T04:43:08;11.50;57.60
10300;DHT22;5195;48.562;9.192;2024-02-15T04:45:43;11.40;57.40
10300;DHT22;5195;48.562;9.192;2024-02-15T04:48:19;11.10;57.60
10300;DHT22;5195;48.562;9.192;2024-02-15T04:50:54;10.90;58.00
10300;DHT22;5195;48.562;9.192;2024-02-15T04:53:31;10.80;58.30
10300;DHT22;5195;48.562;9.192;2024-02-15T04:56:06;10.80;58.30
10300;DHT22;5195;48.562;9.192;2024-02-15T04:58:42;10.80;58.00
10300;DHT22;5195;48.562;9.192;2024-02-15T05:01:17;10.70;58.30
10300;DHT22;5195;48.562;9.192;2024-02-15T05:03:53;10.80;58.50
10300;DHT22;5195;48.562;9.192;2024-02-15T05:06:29;10.80;58.20
10300;DHT22;5195;48.562;9.192;2024-02-15T05:09:04;10.60;58.40
10300;DHT22;5195;48.562;9.192;2024-02-15T05:11:43;10.70;58.80
10300;DHT22;5195;48.562;9.192;2024-02-15T05:14:22;10.70;58.50
10300;DHT22;5195;48.562;9.192;2024-02-15T05:16:57;10.80;58.70
10300;DHT22;5195;48.562;9.192;2024-02-15T05:19:33;10.80;58.30
10300;DHT22;5195;48.562;9.192;2024-02-15T05:22:08;10.60;58.60
10300;DHT22;5195;48.562;9.192;2024-02-15T05:24:44;10.40;59.00
10300;DHT22;5195;48.562;9.192;2024-02-15T05:27:20;10.20;59.10
10300;DHT22;5195;48.562;9.192;2024-02-15T05:29:55;10.10;59.30
10300;DHT22;5195;48.562;9.192;2024-02-15T05:32:31;10.30;59.60
10300;DHT22;5195;48.562;9.192;2024-02-15T05:35:10;10.40;59.10
10300;DHT22;5195;48.562;9.192;2024-02-15T05:37:49;10.60;58.90
10300;DHT22;5195;48.562;9.192;2024-02-15T05:40:24;10.90;58.00
10300;DHT22;5195;48.562;9.192;2024-02-15T05:43:00;10.80;57.70
10300;DHT22;5195;48.562;9.192;2024-02-15T05:45:36;10.20;58.30
10300;DHT22;5195;48.562;9.192;2024-02-15T05:48:12;10.20;58.30
10300;DHT22;5195;48.562;9.192;2024-02-15T05:50:47;10.40;58.10
10300;DHT22;5195;48.562;9.192;2024-02-15T05:53:23;10.30;57.60
10300;DHT22;5195;48.562;9.192;2024-02-15T05:55:59;10.10;57.80
10300;DHT22;5195;48.562;9.192;2024-02-15T05:58:34;10.20;57.90
10300;DHT22;5195;48.562;9.192;2024-02-15T06:01:10;10.10;57.60
10300;DHT22;5195;48.562;9.192;2024-02-15T06:03:45;10.20;57.50
10300;DHT22;5195;48.562;9.192;2024-02-15T06:06:21;10.50;56.80
10300;DHT22;5195;48.562;9.192;2024-02-15T06:08:57;10.40;56.70
10300;DHT22;5195;48.562;9.192;2024-02-15T06:11:33;10.40;56.70
10300;DHT22;5195;48.562;9.192;2024-02-15T06:14:08;10.30;56.70
10300;DHT22;5195;48.562;9.192;2024-02-15T06:16:44;10.00;57.10
10300;DHT22;5195;48.562;9.192;2024-02-15T06:19:20;10.10;57.50
10300;DHT22;5195;48.562;9.192;2024-02-15T06:21:55;10.50;57.10
10300;DHT22;5195;48.562;9.192;2024-02-15T06:24:31;10.40;56.80
10300;DHT22;5195;48.562;9.192;2024-02-15T06:27:08;10.10;57.20
10300;DHT22;5195;48.562;9.192;2024-02-15T06:29:43;10.30;57.80
10300;DHT22;5195;48.562;9.192;2024-02-15T06:32:39;10.60;57.40
10300;DHT22;5195;48.562;9.192;2024-02-15T06:35:34;10.80;56.60
10300;DHT22;5195;48.562;9.192;2024-02-15T06:38:30;11.00;56.10
10300;DHT22;5195;48.562;9.192;2024-02-15T06:41:25;10.70;56.10
10300;DHT22;5195;48.562;9.192;2024-02-15T06:44:02;10.40;56.50
10300;DHT22;5195;48.562;9.192;2024-02-15T06:46:37;10.40;57.20
10300;DHT22;5195;48.562;9.192;2024-02-15T06:49:13;10.00;56.90
10300;DHT22;5195;48.562;9.192;2024-02-15T06:51:48;9.70;58.30
10300;DHT22;5195;48.562;9.192;2024-02-15T06:54:24;9.50;58.90
10300;DHT22;5195;48.562;9.192;2024-02-15T06:57:00;9.40;59.30
10300;DHT22;5195;48.562;9.192;2024-02-15T06:59:35;9.20;59.50
10300;DHT22;5195;48.562;9.192;2024-02-15T07:02:11;9.50;59.60
10300;DHT22;5195;48.562;9.192;2024-02-15T07:04:46;9.50;59.20
10300;DHT22;5195;48.562;9.192;2024-02-15T07:07:23;9.30;59.80
10300;DHT22;5195;48.562;9.192;2024-02-15T07:09:58;9.30;59.80
10300;DHT22;5195;48.562;9.192;2024-02-15T07:12:35;9.60;59.60
10300;DHT22;5195;48.562;9.192;2024-02-15T07:15:10;9.60;59.50
10300;DHT22;5195;48.562;9.192;2024-02-15T07:17:46;9.60;59.90
10300;DHT22;5195;48.562;9.192;2024-02-15T07:20:21;9.50;60.30
10300;DHT22;5195;48.562;9.192;2024-02-15T07:22:58;9.90;60.50
10300;DHT22;5195;48.562;9.192;2024-02-15T07:25:34;10.20;59.50
10300;DHT22;5195;48.562;9.192;2024-02-15T07:28:10;10.30;59.50
10300;DHT22;5195;48.562;9.192;2024-02-15T07:30:46;10.30;59.50
10300;DHT22;5195;48.562;9.192;2024-02-15T07:33:22;10.80;59.80
10300;DHT22;5195;48.562;9.192;2024-02-15T07:35:57;11.00;58.50
10300;DHT22;5195;48.562;9.192;2024-02-15T07:38:33;11.40;57.80
10300;DHT22;5195;48.562;9.192;2024-02-15T07:41:09;12.10;56.70
10300;DHT22;5195;48.562;9.192;2024-02-15T07:43:45;12.00;56.60
10300;DHT22;5195;48.562;9.192;2024-02-15T07:46:20;12.30;56.00
10300;DHT22;5195;48.562;9.192;2024-02-15T07:48:56;12.40;55.90
10300;DHT22;5195;48.562;9.192;2024-02-15T07:51:31;12.70;55.60
10300;DHT22;5195;48.562;9.192;2024-02-15T07:54:08;12.70;55.30
10300;DHT22;5195;48.562;9.192;2024-02-15T07:56:44;12.90;55.00
10300;DHT22;5195;48.562;9.192;2024-02-15T07:59:20;13.30;54.60
10300;DHT22;5195;48.562;9.192;2024-02-15T08:01:57;13.60;53.30
10300;DHT22;5195;48.562;9.192;2024-02-15T08:04:37;14.10;52.30
10300;DHT22;5195;48.562;9.192;2024-02-15T08:07:12;14.10;52.20
10300;DHT22;5195;48.562;9.192;2024-02-15T08:09:48;14.00;52.30
10300;DHT22;5195;48.562;9.192;2024-02-15T08:12:23;13.90;52.80
10300;DHT22;5195;48.562;9.192;2024-02-15T08:14:59;13.90;51.60
10300;DHT22;5195;48.562;9.192;2024-02-15T08:17:36;14.10;51.10
10300;DHT22;5195;48.562;9.192;2024-02-15T08:20:12;14.00;51.30
10300;DHT22;5195;48.562;9.192;2024-02-15T08:22:49;14.10;51.20
10300;DHT22;5195;48.562;9.192;2024-02-15T08:25:24;14.30;50.80
10300;DHT22;5195;48.562;9.192;2024-02-15T08:28:00;14.60;51.50
10300;DHT22;5195;48.562;9.192;2024-02-15T08:30:36;14.60;50.80
10300;DHT22;5195;48.562;9.192;2024-02-15T08:33:12;14.70;50.80
10300;DHT22;5195;48.562;9.192;2024-02-15T08:35:47;14.70;51.00
10300;DHT22;5195;48.562;9.192;2024-02-15T08:38:23;14.80;50.90
10300;DHT22;5195;48.562;9.192;2024-02-15T08:40:58;14.80;50.90
10300;DHT22;5195;48.562;9.192;2024-02-15T08:43:35;14.60;51.10
10300;DHT22;5195;48.562;9.192;2024-02-15T08:46:11;14.70;50.40
10300;DHT22;5195;48.562;9.192;2024-02-15T08:48:46;14.70;50.60
10300;DHT22;5195;48.562;9.192;2024-02-15T08:51:22;14.80;49.30
10300;DHT22;5195;48.562;9.192;2024-02-15T08:53:58;14.80;50.00
10300;DHT22;5195;48.562;9.192;2024-02-15T08:56:34;14.60;50.40
10300;DHT22;5195;48.562;9.192;2024-02-15T08:59:09;14.80;49.90
10300;DHT22;5195;48.562;9.192;2024-02-15T09:01:45;15.30;49.20
10300;DHT22;5195;48.562;9.192;2024-02-15T09:04:21;15.20;49.10
10300;DHT22;5195;48.562;9.192;2024-02-15T09:06:56;15.20;49.30
10300;DHT22;5195;48.562;9.192;2024-02-15T09:09:32;15.20;48.70
10300;DHT22;5195;48.562;9.192;2024-02-15T09:12:08;15.40;48.90
10300;DHT22;5195;48.562;9.192;2024-02-15T09:14:43;15.40;49.20
10300;DHT22;5195;48.562;9.192;2024-02-15T09:17:19;15.50;48.70
10300;DHT22;5195;48.562;9.192;2024-02-15T09:19:54;15.80;48.30
10300;DHT22;5195;48.562;9.192;2024-02-15T09:22:32;16.10;47.20
10300;DHT22;5195;48.562;9.192;2024-02-15T09:25:08;16.40;46.90
10300;DHT22;5195;48.562;9.192;2024-02-15T09:27:45;16.30;48.10
10300;DHT22;5195;48.562;9.192;2024-02-15T09:30:24;16.30;48.10
10300;DHT22;5195;48.562;9.192;2024-02-15T09:32:59;16.50;47.30
10300;DHT22;5195;48.562;9.192;2024-02-15T09:35:35;16.80;46.80
10300;DHT22;5195;48.562;9.192;2024-02-15T09:38:11;17.10;46.60
10300;DHT22;5195;48.562;9.192;2024-02-15T09:40:50;17.00;46.60
10300;DHT22;5195;48.562;9.192;2024-02-15T09:43:25;17.10;45.90
10300;DHT22;5195;48.562;9.192;2024-02-15T09:46:01;17.40;45.60
10300;DHT22;5195;48.562;9.192;2024-02-15T09:48:40;17.40;46.00
10300;DHT22;5195;48.562;9.192;2024-02-15T09:51:17;17.60;45.70
10300;DHT22;5195;48.562;9.192;2024-02-15T09:53:51;17.60;45.70
10300;DHT22;5195;48.562;9.192;2024-02-15T09:56:27;17.80;45.00
10300;DHT22;5195;48.562;9.192;2024-02-15T09:59:03;17.70;45.50
10300;DHT22;5195;48.562;9.192;2024-02-15T10:01:38;17.70;45.10
10300;DHT22;5195;48.562;9.192;2024-02-15T10:04:14;17.80;45.00
10300;DHT22;5195;48.562;9.192;2024-02-15T10:06:49;17.80;45.40
10300;DHT22;5195;48.562;9.192;2024-02-15T10:09:26;17.60;46.00
10300;DHT22;5195;48.562;9.192;2024-02-15T10:12:07;17.60;46.00
10300;DHT22;5195;48.562;9.192;2024-02-15T10:14:50;17.60;46.30
10300;DHT22;5195;48.562;9.192;2024-02-15T10:17:25;17.70;46.20
10300;DHT22;5195;48.562;9.192;2024-02-15T10:20:06;17.70;46.50
10300;DHT22;5195;48.562;9.192;2024-02-15T10:22:41;17.60;46.60
10300;DHT22;5195;48.562;9.192;2024-02-15T10:25:18;18.10;44.70
10300;DHT22;5195;48.562;9.192;2024-02-15T10:28:07;18.10;44.60
10300;DHT22;5195;48.562;9.192;2024-02-15T10:30:42;18.50;44.00
10300;DHT22;5195;48.562;9.192;2024-02-15T10:33:27;18.70;43.10
10300;DHT22;5195;48.562;9.192;2024-02-15T10:36:09;18.70;43.70
10300;DHT22;5195;48.562;9.192;2024-02-15T10:38:45;18.30;44.80
10300;DHT22;5195;48.562;9.192;2024-02-15T10:41:21;18.30;44.80
10300;DHT22;5195;48.562;9.192;2024-02-15T10:43:58;18.20;45.00
10300;DHT22;5195;48.562;9.192;2024-02-15T10:46:34;18.10;45.20
10300;DHT22;5195;48.562;9.192;2024-02-15T10:49:09;18.30;44.20
10300;DHT22;5195;48.562;9.192;2024-02-15T10:51:47;18.70;44.20
10300;DHT22;5195;48.562;9.192;2024-02-15T10:57:07;19.50;42.70
10300;DHT22;5195;48.562;9.192;2024-02-15T10:59:45;19.50;42.70
10300;DHT22;5195;48.562;9.192;2024-02-15T11:02:29;19.50;42.90
10300;DHT22;5195;48.562;9.192;2024-02-15T11:05:08;19.10;44.60
10300;DHT22;5195;48.562;9.192;2024-02-15T11:07:46;19.10;44.00
10300;DHT22;5195;48.562;9.192;2024-02-15T11:10:22;19.20;42.90
10300;DHT22;5195;48.562;9.192;2024-02-15T11:12:58;19.50;43.40
10300;DHT22;5195;48.562;9.192;2024-02-15T11:15:40;19.80;42.10
10300;DHT22;5195;48.562;9.192;2024-02-15T11:21:18;19.40;42.70
10300;DHT22;5195;48.562;9.192;2024-02-15T11:23:54;19.40;42.60
10300;DHT22;5195;48.562;9.192;2024-02-15T11:26:44;19.50;40.80
10300;DHT22;5195;48.562;9.192;2024-02-15T11:29:56;19.50;40.80
10300;DHT22;5195;48.562;9.192;2024-02-15T11:35:14;19.90;39.30
10300;DHT22;5195;48.562;9.192;2024-02-15T11:37:53;20.00;39.40
10300;DHT22;5195;48.562;9.192;2024-02-15T11:40:28;19.90;40.20
10300;DHT22;5195;48.562;9.192;2024-02-15T11:43:03;19.70;40.90
10300;DHT22;5195;48.562;9.192;2024-02-15T11:45:39;19.40;41.20
10300;DHT22;5195;48.562;9.192;2024-02-15T11:48:14;19.40;40.10
10300;DHT22;5195;48.562;9.192;2024-02-15T11:50:50;19.60;40.60
10300;DHT22;5195;48.562;9.192;2024-02-15T11:53:27;19.80;39.10
10300;DHT22;5195;48.562;9.192;2024-02-15T11:56:02;19.70;39.80
10300;DHT22;5195;48.562;9.192;2024-02-15T11:58:38;19.80;39.90
10300;DHT22;5195;48.562;9.192;2024-02-15T12:01:20;19.90;40.10
10300;DHT22;5195;48.562;9.192;2024-02-15T12:04:15;20.00;39.10
10300;DHT22;5195;48.562;9.192;2024-02-15T12:07:13;20.20;38.40
10300;DHT22;5195;48.562;9.192;2024-02-15T12:10:07;20.20;39.00
10300;DHT22;5195;48.562;9.192;2024-02-15T12:13:03;20.00;39.70
10300;DHT22;5195;48.562;9.192;2024-02-15T12:15:58;19.70;40.40
10300;DHT22;5195;48.562;9.192;2024-02-15T12:18:53;19.70;39.90
10300;DHT22;5195;48.562;9.192;2024-02-15T12:21:29;19.90;40.70
10300;DHT22;5195;48.562;9.192;2024-02-15T12:24:05;19.80;41.00
10300;DHT22;5195;48.562;9.192;2024-02-15T12:26:41;19.90;40.40
10300;DHT22;5195;48.562;9.192;2024-02-15T12:29:17;19.60;40.50
10300;DHT22;5195;48.562;9.192;2024-02-15T12:31:52;19.50;40.40
10300;DHT22;5195;48.562;9.192;2024-02-15T12:34:28;19.40;40.50
10300;DHT22;5195;48.562;9.192;2024-02-15T12:37:08;19.10;40.70
10300;DHT22;5195;48.562;9.192;2024-02-15T12:39:44;19.40;40.70
10300;DHT22;5195;48.562;9.192;2024-02-15T12:42:21;19.40;40.70
10300;DHT22;5195;48.562;9.192;2024-02-15T12:44:56;19.50;40.40
10300;DHT22;5195;48.562;9.192;2024-02-15T12:47:32;19.60;40.70
10300;DHT22;5195;48.562;9.192;2024-02-15T12:50:16;19.40;41.10
10300;DHT22;5195;48.562;9.192;2024-02-15T12:52:51;19.30;41.50
10300;DHT22;5195;48.562;9.192;2024-02-15T12:55:27;19.10;41.70
10300;DHT22;5195;48.562;9.192;2024-02-15T12:58:04;19.30;40.90
10300;DHT22;5195;48.562;9.192;2024-02-15T13:00:38;19.40;41.00
10300;DHT22;5195;48.562;9.192;2024-02-15T13:03:16;19.30;41.20
10300;DHT22;5195;48.562;9.192;2024-02-15T13:05:52;19.40;40.30
10300;DHT22;5195;48.562;9.192;2024-02-15T13:08:28;19.40;40.60
10300;DHT22;5195;48.562;9.192;2024-02-15T13:11:03;19.50;40.20
10300;DHT22;5195;48.562;9.192;2024-02-15T13:13:40;19.70;40.40
10300;DHT22;5195;48.562;9.192;2024-02-15T13:16:15;19.70;40.00
10300;DHT22;5195;48.562;9.192;2024-02-15T13:18:51;19.50;40.60
10300;DHT22;5195;48.562;9.192;2024-02-15T13:21:26;19.40;41.00
10300;DHT22;5195;48.562;9.192;2024-02-15T13:24:02;19.50;40.10
10300;DHT22;5195;48.562;9.192;2024-02-15T13:26:40;19.80;39.80
10300;DHT22;5195;48.562;9.192;2024-02-15T13:29:16;20.00;39.30
10300;DHT22;5195;48.562;9.192;2024-02-15T13:31:53;20.00;39.50
10300;DHT22;5195;48.562;9.192;2024-02-15T13:34:29;19.50;40.40
10300;DHT22;5195;48.562;9.192;2024-02-15T13:37:05;19.50;40.30
10300;DHT22;5195;48.562;9.192;2024-02-15T13:39:40;19.40;40.80
10300;DHT22;5195;48.562;9.192;2024-02-15T13:42:16;19.20;41.00
10300;DHT22;5195;48.562;9.192;2024-02-15T13:44:52;19.40;40.70
10300;DHT22;5195;48.562;9.192;2024-02-15T13:47:29;19.70;40.20
10300;DHT22;5195;48.562;9.192;2024-02-15T13:50:04;19.90;39.90
10300;DHT22;5195;48.562;9.192;2024-02-15T13:52:41;20.20;39.90
10300;DHT22;5195;48.562;9.192;2024-02-15T13:55:17;20.10;40.20
10300;DHT22;5195;48.562;9.192;2024-02-15T13:57:53;19.90;40.00
10300;DHT22;5195;48.562;9.192;2024-02-15T14:00:31;19.90;40.00
10300;DHT22;5195;48.562;9.192;2024-02-15T14:03:10;20.10;40.30
10300;DHT22;5195;48.562;9.192;2024-02-15T14:05:44;20.30;40.00
10300;DHT22;5195;48.562;9.192;2024-02-15T14:08:20;20.20;40.10
10300;DHT22;5195;48.562;9.192;2024-02-15T14:10:56;19.90;40.60
10300;DHT22;5195;48.562;9.192;2024-02-15T14:13:31;19.90;40.90
10300;DHT22;5195;48.562;9.192;2024-02-15T14:16:07;19.80;41.10
10300;DHT22;5195;48.562;9.192;2024-02-15T14:18:43;19.40;41.80
10300;DHT22;5195;48.562;9.192;2024-02-15T14:21:19;19.30;41.70
10300;DHT22;5195;48.562;9.192;2024-02-15T14:23:54;19.20;41.90
10300;DHT22;5195;48.562;9.192;2024-02-15T14:26:32;19.00;42.10
10300;DHT22;5195;48.562;9.192;2024-02-15T14:29:08;19.10;42.00
10300;DHT22;5195;48.562;9.192;2024-02-15T14:31:44;19.20;42.20
10300;DHT22;5195;48.562;9.192;2024-02-15T14:34:41;19.00;42.40
10300;DHT22;5195;48.562;9.192;2024-02-15T14:37:16;18.90;42.50
10300;DHT22;5195;48.562;9.192;2024-02-15T14:39:52;19.00;42.10
10300;DHT22;5195;48.562;9.192;2024-02-15T14:42:29;19.00;42.00
10300;DHT22;5195;48.562;9.192;2024-02-15T14:45:06;18.90;42.20
10300;DHT22;5195;48.562;9.192;2024-02-15T14:47:41;19.10;42.00
10300;DHT22;5195;48.562;9.192;2024-02-15T14:50:17;19.10;42.00
10300;DHT22;5195;48.562;9.192;2024-02-15T14:52:53;19.20;41.80
10300;DHT22;5195;48.562;9.192;2024-02-15T14:55:28;19.20;41.40
10300;DHT22;5195;48.562;9.192;2024-02-15T14:58:08;19.30;41.70
10300;DHT22;5195;48.562;9.192;2024-02-15T15:00:43;19.50;41.10
10300;DHT22;5195;48.562;9.192;2024-02-15T15:03:19;19.70;40.90
10300;DHT22;5195;48.562;9.192;2024-02-15T15:05:57;19.60;41.00
10300;DHT22;5195;48.562;9.192;2024-02-15T15:08:52;19.60;41.00
10300;DHT22;5195;48.562;9.192;2024-02-15T15:11:49;19.40;41.20
10300;DHT22;5195;48.562;9.192;2024-02-15T15:14:44;19.40;40.90
10300;DHT22;5195;48.562;9.192;2024-02-15T15:17:20;19.30;41.90
10300;DHT22;5195;48.562;9.192;2024-02-15T15:19:55;19.30;41.50
10300;DHT22;5195;48.562;9.192;2024-02-15T15:22:31;19.50;41.40
10300;DHT22;5195;48.562;9.192;2024-02-15T15:25:08;19.40;41.40
10300;DHT22;5195;48.562;9.192;2024-02-15T15:27:43;19.10;41.70
10300;DHT22;5195;48.562;9.192;2024-02-15T15:30:19;18.80;42.00
10300;DHT22;5195;48.562;9.192;2024-02-15T15:32:54;19.00;42.00
10300;DHT22;5195;48.562;9.192;2024-02-15T15:35:32;18.90;42.00
10300;DHT22;5195;48.562;9.192;2024-02-15T15:38:08;18.70;42.90
10300;DHT22;5195;48.562;9.192;2024-02-15T15:40:43;18.70;42.90
10300;DHT22;5195;48.562;9.192;2024-02-15T15:43:20;19.00;44.00
10300;DHT22;5195;48.562;9.192;2024-02-15T15:45:57;18.90;43.60
10300;DHT22;5195;48.562;9.192;2024-02-15T15:48:33;18.90;42.80
10300;DHT22;5195;48.562;9.192;2024-02-15T15:51:08;18.80;42.90
10300;DHT22;5195;48.562;9.192;2024-02-15T15:53:44;18.50;43.40
10300;DHT22;5195;48.562;9.192;2024-02-15T15:56:20;18.40;43.50
10300;DHT22;5195;48.562;9.192;2024-02-15T15:58:56;18.40;43.50
10300;DHT22;5195;48.562;9.192;2024-02-15T16:01:31;18.10;43.60
10300;DHT22;5195;48.562;9.192;2024-02-15T16:04:07;17.90;43.90
10300;DHT22;5195;48.562;9.192;2024-02-15T16:06:42;18.00;44.20
10300;DHT22;5195;48.562;9.192;2024-02-15T16:09:19;17.90;43.90
10300;DHT22;5195;48.562;9.192;2024-02-15T16:11:57;18.00;44.50
10300;DHT22;5195;48.562;9.192;2024-02-15T16:14:33;17.90;43.80
10300;DHT22;5195;48.562;9.192;2024-02-15T16:17:08;18.00;43.80
10300;DHT22;5195;48.562;9.192;2024-02-15T16:19:44;17.90;43.80
10300;DHT22;5195;48.562;9.192;2024-02-15T16:22:20;17.70;44.10
10300;DHT22;5195;48.562;9.192;2024-02-15T16:24:55;17.70;44.20
10300;DHT22;5195;48.562;9.192;2024-02-15T16:30:10;18.20;43.80
10300;DHT22;5195;48.562;9.192;2024-02-15T16:32:46;17.60;43.90
10300;DHT22;5195;48.562;9.192;2024-02-15T16:35:23;17.60;43.90
10300;DHT22;5195;48.562;9.192;2024-02-15T16:38:04;17.30;44.30
10300;DHT22;5195;48.562;9.192;2024-02-15T16:40:40;17.10;44.60
10300;DHT22;5195;48.562;9.192;2024-02-15T16:43:17;16.80;44.60